createdAt,value
2018-07-05T00:00:50.902Z,53.20
2018-07-05T00:02:52.861Z,53.20
2018-07-05T00:04:54.829Z,53.20
2018-07-05T00:06:56.818Z,53.20
2018-07-05T00:08:58.798Z,53.20
2018-07-05T00:11:00.766Z,53.30
2018-07-05T00:13:02.743Z,53.30
2018-07-05T00:15:04.725Z,53.30
2018-07-05T00:17:06.720Z,53.30
2018-07-05T00:19:08.695Z,53.30
2018-07-05T00:21:10.662Z,53.30
2018-07-05T00:23:12.634Z,53.30
2018-07-05T00:25:14.594Z,53.40
2018-07-05T00:29:18.846Z,53.50
2018-07-05T00:31:20.830Z,54.10
2018-07-05T00:33:22.799Z,53.50
2018-07-05T00:35:24.777Z,53.50
2018-07-05T00:37:26.735Z,53.50
2018-07-05T00:39:28.712Z,53.40
2018-07-05T00:41:30.696Z,53.50
2018-07-05T00:43:32.664Z,53.50
2018-07-05T00:45:34.658Z,53.50
2018-07-05T00:47:36.616Z,53.60
2018-07-05T00:49:38.617Z,53.50
2018-07-05T00:51:40.580Z,53.60
2018-07-05T00:53:42.558Z,53.50
2018-07-05T00:55:44.534Z,53.50
2018-07-05T00:57:46.522Z,53.60
2018-07-05T00:59:48.510Z,53.60
2018-07-05T01:01:50.473Z,53.60
2018-07-05T01:03:52.439Z,53.60
2018-07-05T01:05:54.421Z,53.60
2018-07-05T01:09:58.647Z,53.70
2018-07-05T01:12:00.609Z,53.70
2018-07-05T01:14:02.583Z,53.70
2018-07-05T01:16:04.561Z,53.70
2018-07-05T01:18:06.523Z,53.80
2018-07-05T01:20:08.515Z,53.70
2018-07-05T01:22:10.489Z,53.70
2018-07-05T01:24:12.449Z,53.80
2018-07-05T01:26:14.439Z,53.90
2018-07-05T01:30:18.695Z,53.90
2018-07-05T01:32:20.684Z,54.00
2018-07-05T01:34:22.649Z,53.90
2018-07-05T01:36:24.619Z,54.00
2018-07-05T01:38:26.596Z,54.00
2018-07-05T01:40:28.577Z,54.00
2018-07-05T01:42:30.599Z,54.00
2018-07-05T01:44:32.567Z,54.10
2018-07-05T01:46:34.539Z,54.20
2018-07-05T01:48:36.519Z,54.20
2018-07-05T01:50:38.479Z,54.10
2018-07-05T01:52:40.451Z,54.00
2018-07-05T01:54:42.445Z,54.20
2018-07-05T01:56:44.415Z,54.20
2018-07-05T01:58:46.395Z,54.20
2018-07-05T02:00:48.360Z,54.20
2018-07-05T02:02:50.340Z,54.20
2018-07-05T02:04:52.312Z,54.20
2018-07-05T02:06:54.277Z,54.20
2018-07-05T02:08:56.251Z,54.20
2018-07-05T02:10:58.213Z,54.30
2018-07-05T02:13:00.193Z,54.60
2018-07-05T02:15:02.161Z,54.30
2018-07-05T02:17:04.126Z,54.30
2018-07-05T02:19:06.109Z,54.30
2018-07-05T02:21:08.081Z,54.30
2018-07-05T02:23:10.059Z,54.30
2018-07-05T02:25:12.035Z,54.30
2018-07-05T02:27:13.994Z,54.30
2018-07-05T02:29:15.985Z,55.00
2018-07-05T02:31:17.966Z,54.40
2018-07-05T02:33:19.955Z,54.20
2018-07-05T02:35:22.036Z,54.30
2018-07-05T02:37:23.993Z,54.30
2018-07-05T02:39:25.987Z,54.40
2018-07-05T02:41:27.977Z,54.40
2018-07-05T02:43:29.951Z,54.40
2018-07-05T02:45:31.925Z,54.40
2018-07-05T02:47:33.908Z,54.50
2018-07-05T02:49:35.882Z,54.50
2018-07-05T02:51:37.862Z,54.50
2018-07-05T02:53:39.835Z,54.40
2018-07-05T02:55:41.800Z,54.40
2018-07-05T02:57:43.779Z,54.50
2018-07-05T02:59:45.746Z,54.80
2018-07-05T03:01:47.721Z,54.60
2018-07-05T03:03:49.739Z,54.60
2018-07-05T03:05:51.712Z,54.50
2018-07-05T03:09:55.933Z,55.10
2018-07-05T03:11:57.911Z,54.60
2018-07-05T03:13:59.905Z,54.70
2018-07-05T03:16:01.878Z,54.60
2018-07-05T03:18:03.866Z,54.50
2018-07-05T03:20:06.061Z,54.60
2018-07-05T03:22:08.045Z,54.60
2018-07-05T03:24:10.069Z,54.40
2018-07-05T03:26:12.033Z,54.50
2018-07-05T03:28:13.995Z,54.50
2018-07-05T03:30:15.981Z,54.50
2018-07-05T03:32:17.961Z,54.50
2018-07-05T03:34:19.925Z,54.60
2018-07-05T03:36:21.903Z,54.60
2018-07-05T03:38:23.883Z,54.60
2018-07-05T03:40:25.873Z,54.60
2018-07-05T03:42:27.847Z,54.60
2018-07-05T03:44:29.817Z,54.70
2018-07-05T03:46:31.783Z,53.30
2018-07-05T03:48:33.853Z,54.80
2018-07-05T03:50:35.823Z,54.60
2018-07-05T03:52:37.803Z,54.80
2018-07-05T03:54:39.775Z,54.60
2018-07-05T03:56:41.763Z,54.70
2018-07-05T04:00:45.953Z,54.70
2018-07-05T04:02:47.963Z,54.70
2018-07-05T04:04:49.927Z,54.70
2018-07-05T04:06:51.897Z,54.80
2018-07-05T04:08:53.885Z,54.80
2018-07-05T04:10:55.852Z,54.60
2018-07-05T04:12:57.839Z,54.70
2018-07-05T04:14:59.818Z,54.70
2018-07-05T04:17:01.814Z,54.70
2018-07-05T04:19:03.790Z,54.70
2018-07-05T04:21:05.762Z,54.70
2018-07-05T04:23:07.717Z,54.80
2018-07-05T04:25:09.714Z,54.90
2018-07-05T04:27:11.719Z,55.70
2018-07-05T04:29:13.688Z,54.90
2018-07-05T04:31:15.644Z,54.80
2018-07-05T04:33:17.600Z,54.90
2018-07-05T04:35:19.590Z,54.80
2018-07-05T04:37:21.558Z,55.00
2018-07-05T04:39:23.576Z,54.80
2018-07-05T04:43:27.756Z,54.50
2018-07-05T04:45:29.750Z,55.10
2018-07-05T04:47:31.709Z,55.00
2018-07-05T04:49:33.679Z,54.90
2018-07-05T04:51:35.670Z,54.80
2018-07-05T04:53:37.658Z,55.60
2018-07-05T04:55:39.619Z,55.00
2018-07-05T04:57:41.586Z,54.80
2018-07-05T04:59:43.561Z,54.70
2018-07-05T05:01:45.557Z,54.80
2018-07-05T05:03:47.521Z,54.80
2018-07-05T05:05:49.516Z,54.90
2018-07-05T05:07:51.496Z,55.60
2018-07-05T05:09:53.464Z,55.00
2018-07-05T05:11:55.458Z,55.30
2018-07-05T05:13:57.426Z,55.00
2018-07-05T05:15:59.396Z,55.10
2018-07-05T05:18:01.411Z,54.90
2018-07-05T05:20:03.362Z,55.00
2018-07-05T05:22:05.348Z,55.00
2018-07-05T05:24:07.325Z,55.10
2018-07-05T05:26:09.277Z,55.20
2018-07-05T05:28:11.252Z,55.10
2018-07-05T05:30:13.229Z,55.20
2018-07-05T05:32:15.184Z,55.10
2018-07-05T05:34:17.162Z,55.00
2018-07-05T05:38:21.390Z,55.10
2018-07-05T05:40:23.355Z,55.10
2018-07-05T05:42:25.328Z,55.10
2018-07-05T05:44:27.308Z,55.20
2018-07-05T05:46:29.272Z,55.20
2018-07-05T05:48:31.219Z,54.90
2018-07-05T05:50:33.186Z,55.20
2018-07-05T05:52:35.235Z,55.20
2018-07-05T05:54:37.192Z,55.20
2018-07-05T05:56:39.170Z,55.20
2018-07-05T05:58:41.130Z,55.10
2018-07-05T06:00:43.133Z,55.20
2018-07-05T06:02:45.114Z,55.10
2018-07-05T06:04:47.088Z,55.20
2018-07-05T06:06:49.066Z,55.10
2018-07-05T06:08:51.025Z,55.20
2018-07-05T06:10:53.011Z,55.10
2018-07-05T06:12:54.992Z,55.30
2018-07-05T06:14:56.957Z,56.00
2018-07-05T06:16:58.945Z,55.20
2018-07-05T06:19:00.909Z,55.40
2018-07-05T06:21:02.930Z,55.30
2018-07-05T06:23:04.896Z,55.10
2018-07-05T06:25:06.850Z,55.40
2018-07-05T06:27:08.828Z,55.40
2018-07-05T06:29:10.786Z,55.10
2018-07-05T06:31:12.752Z,55.30
2018-07-05T06:33:14.746Z,55.40
2018-07-05T06:35:16.707Z,55.70
2018-07-05T06:37:18.698Z,55.10
2018-07-05T06:39:20.652Z,55.20
2018-07-05T06:41:22.614Z,55.20
2018-07-05T06:43:24.610Z,55.00
2018-07-05T06:45:26.570Z,55.10
2018-07-05T06:47:28.606Z,55.10
2018-07-05T06:49:30.516Z,55.00
2018-07-05T06:51:32.490Z,55.10
2018-07-05T06:53:34.468Z,55.00
2018-07-05T06:55:36.434Z,54.80
2018-07-05T06:57:38.421Z,54.40
2018-07-05T06:59:40.392Z,54.30
2018-07-05T07:01:42.365Z,54.70
2018-07-05T07:03:44.337Z,54.50
2018-07-05T07:05:46.292Z,54.70
2018-07-05T07:07:48.251Z,55.70
2018-07-05T07:09:50.232Z,55.40
2018-07-05T07:11:52.199Z,55.40
2018-07-05T07:13:54.183Z,55.30
2018-07-05T07:15:56.160Z,55.60
2018-07-05T07:17:58.125Z,55.60
2018-07-05T07:20:00.121Z,55.30
2018-07-05T07:22:02.102Z,55.20
2018-07-05T07:24:04.083Z,55.10
2018-07-05T07:26:06.065Z,55.10
2018-07-05T07:28:08.037Z,55.20
2018-07-05T07:30:10.031Z,54.40
2018-07-05T07:32:12.008Z,54.50
2018-07-05T07:34:13.951Z,55.10
2018-07-05T07:36:15.955Z,54.50
2018-07-05T07:38:17.909Z,55.10
2018-07-05T07:40:19.879Z,55.70
2018-07-05T07:42:21.857Z,55.70
2018-07-05T07:44:23.819Z,54.90
2018-07-05T07:46:25.809Z,55.40
2018-07-05T07:48:27.795Z,54.80
2018-07-05T07:50:29.765Z,54.00
2018-07-05T07:52:32.016Z,54.00
2018-07-05T07:56:36.245Z,53.50
2018-07-05T07:58:38.213Z,53.10
2018-07-05T08:00:40.197Z,51.90
2018-07-05T08:02:42.571Z,52.10
2018-07-05T08:04:44.523Z,52.80
2018-07-05T08:06:46.493Z,53.10
2018-07-05T08:08:48.477Z,53.60
2018-07-05T08:12:52.672Z,53.80
2018-07-05T08:14:54.661Z,53.70
2018-07-05T08:16:56.655Z,53.70
2018-07-05T08:18:58.626Z,53.70
2018-07-05T08:21:00.595Z,54.00
2018-07-05T08:23:02.563Z,54.10
2018-07-05T08:25:04.552Z,54.00
2018-07-05T08:27:06.539Z,53.90
2018-07-05T08:29:08.504Z,54.20
2018-07-05T08:31:10.477Z,54.20
2018-07-05T08:33:12.453Z,54.10
2018-07-05T08:35:14.426Z,54.00
2018-07-05T08:37:16.398Z,53.80
2018-07-05T08:39:18.357Z,53.50
2018-07-05T08:41:20.335Z,53.70
2018-07-05T08:43:22.299Z,53.80
2018-07-05T08:45:24.281Z,53.70
2018-07-05T08:47:26.247Z,53.60
2018-07-05T08:49:28.231Z,53.40
2018-07-05T08:51:30.310Z,53.20
2018-07-05T08:53:32.253Z,53.70
2018-07-05T08:55:34.218Z,53.60
2018-07-05T08:57:36.179Z,53.40
2018-07-05T08:59:38.151Z,53.60
2018-07-05T09:01:40.144Z,53.40
2018-07-05T09:03:42.108Z,53.50
2018-07-05T09:05:44.083Z,53.50
2018-07-05T09:07:46.109Z,53.50
2018-07-05T09:09:48.095Z,53.60
2018-07-05T09:13:52.301Z,53.40
2018-07-05T09:15:54.267Z,53.60
2018-07-05T09:17:56.459Z,53.70
2018-07-05T09:19:58.240Z,53.60
2018-07-05T09:22:00.218Z,53.50
2018-07-05T09:24:02.184Z,53.50
2018-07-05T09:28:06.392Z,53.50
2018-07-05T09:30:08.392Z,53.30
2018-07-05T09:32:10.357Z,53.40
2018-07-05T09:34:12.355Z,53.50
2018-07-05T09:36:14.359Z,53.30
2018-07-05T09:38:16.327Z,53.20
2018-07-05T09:40:18.525Z,53.20
2018-07-05T09:42:20.490Z,53.50
2018-07-05T09:44:22.474Z,53.60
2018-07-05T09:46:24.454Z,53.80
2018-07-05T09:48:26.425Z,53.70
2018-07-05T09:50:28.413Z,53.90
2018-07-05T09:52:30.431Z,54.00
2018-07-05T09:54:32.582Z,54.00
2018-07-05T09:56:34.568Z,54.10
2018-07-05T09:58:36.547Z,55.00
2018-07-05T10:00:38.531Z,54.40
2018-07-05T10:02:40.514Z,54.30
2018-07-05T10:04:42.480Z,54.30
2018-07-05T10:06:44.470Z,54.10
2018-07-05T10:08:46.450Z,54.20
2018-07-05T10:10:48.410Z,54.70
2018-07-05T10:12:50.413Z,55.40
2018-07-05T10:14:52.374Z,55.60
2018-07-05T10:16:54.350Z,54.20
2018-07-05T10:18:56.334Z,54.70
2018-07-05T10:20:58.322Z,54.70
2018-07-05T10:23:00.320Z,54.10
2018-07-05T10:25:02.278Z,54.30
2018-07-05T10:27:04.366Z,54.50
2018-07-05T10:29:06.242Z,54.90
2018-07-05T10:31:08.214Z,54.70
2018-07-05T10:33:10.178Z,55.10
2018-07-05T10:35:12.160Z,55.10
2018-07-05T10:37:14.146Z,55.20
2018-07-05T10:39:16.120Z,55.70
2018-07-05T10:41:18.094Z,55.30
2018-07-05T10:43:20.062Z,55.50
2018-07-05T10:45:22.132Z,55.10
2018-07-05T10:47:24.113Z,55.00
2018-07-05T10:49:26.109Z,55.40
2018-07-05T10:51:28.079Z,54.90
2018-07-05T10:53:30.050Z,54.80
2018-07-05T10:55:32.037Z,54.70
2018-07-05T10:57:34.005Z,54.40
2018-07-05T10:59:35.996Z,54.30
2018-07-05T11:01:37.974Z,54.70
2018-07-05T11:03:39.940Z,54.90
2018-07-05T11:05:41.922Z,54.90
2018-07-05T11:07:43.888Z,54.40
2018-07-05T11:09:45.848Z,54.80
2018-07-05T11:11:47.836Z,54.30
2018-07-05T11:13:49.809Z,53.80
2018-07-05T11:15:51.783Z,53.00
2018-07-05T11:17:53.757Z,53.60
2018-07-05T11:19:56.700Z,53.30
2018-07-05T11:21:58.694Z,53.50
2018-07-05T11:24:00.682Z,52.40
2018-07-05T11:26:02.674Z,52.10
2018-07-05T11:28:04.647Z,52.00
2018-07-05T11:30:06.639Z,51.90
2018-07-05T11:32:09.083Z,51.80
2018-07-05T11:34:11.078Z,51.40
2018-07-05T11:36:13.044Z,51.70
2018-07-05T11:38:15.044Z,51.60
2018-07-05T11:40:17.016Z,51.20
2018-07-05T11:42:19.018Z,51.00
2018-07-05T11:44:20.984Z,51.30
2018-07-05T11:46:22.954Z,51.10
2018-07-05T11:48:24.939Z,50.90
2018-07-05T11:50:26.917Z,50.70
2018-07-05T11:52:28.923Z,50.60
2018-07-05T11:54:30.895Z,50.90
2018-07-05T11:56:32.876Z,51.00
2018-07-05T11:58:34.846Z,51.00
2018-07-05T12:00:36.824Z,51.10
2018-07-05T12:02:38.818Z,50.90
2018-07-05T12:04:40.788Z,50.40
2018-07-05T12:06:42.791Z,49.30
2018-07-05T12:08:44.791Z,50.50
2018-07-05T12:10:46.700Z,50.80
2018-07-05T12:12:48.665Z,50.60
2018-07-05T12:14:50.646Z,50.90
2018-07-05T12:16:52.614Z,51.00
2018-07-05T12:18:54.611Z,51.50
2018-07-05T12:22:58.899Z,52.20
2018-07-05T12:25:00.896Z,52.40
2018-07-05T12:27:02.868Z,52.60
2018-07-05T12:29:04.826Z,52.80
2018-07-05T12:31:06.829Z,52.90
2018-07-05T12:33:08.789Z,53.00
2018-07-05T12:35:10.764Z,53.10
2018-07-05T12:37:12.714Z,53.10
2018-07-05T12:39:14.673Z,53.30
2018-07-05T12:41:16.659Z,53.30
2018-07-05T12:43:18.643Z,53.30
2018-07-05T12:45:20.623Z,53.30
2018-07-05T12:47:22.597Z,53.40
2018-07-05T12:49:24.561Z,53.40
2018-07-05T12:51:26.530Z,53.50
2018-07-05T12:53:28.515Z,53.60
2018-07-05T12:55:30.465Z,53.50
2018-07-05T12:57:32.471Z,53.50
2018-07-05T12:59:34.423Z,53.60
2018-07-05T13:01:36.422Z,53.60
2018-07-05T13:03:38.389Z,53.60
2018-07-05T13:05:40.373Z,53.60
2018-07-05T13:07:42.371Z,53.70
2018-07-05T13:09:44.338Z,53.70
2018-07-05T13:11:46.297Z,53.70
2018-07-05T13:13:48.532Z,53.80
2018-07-05T13:15:50.511Z,53.80
2018-07-05T13:17:52.513Z,53.70
2018-07-05T13:19:54.465Z,53.70
2018-07-05T13:21:56.423Z,53.70
2018-07-05T13:23:58.423Z,53.90
2018-07-05T13:26:00.416Z,54.20
2018-07-05T13:28:02.378Z,54.20
2018-07-05T13:30:04.337Z,54.00
2018-07-05T13:32:06.299Z,54.00
2018-07-05T13:34:08.287Z,53.90
2018-07-05T13:36:10.245Z,53.90
2018-07-05T13:38:12.228Z,54.00
2018-07-05T13:40:14.193Z,54.10
2018-07-05T13:42:16.169Z,53.90
2018-07-05T13:44:18.161Z,53.90
2018-07-05T13:46:20.125Z,53.80
2018-07-05T13:48:22.073Z,53.90
2018-07-05T13:50:24.045Z,53.90
2018-07-05T13:52:26.031Z,53.90
2018-07-05T13:54:27.987Z,53.80
2018-07-05T13:56:29.991Z,53.90
2018-07-05T13:58:31.943Z,53.90
2018-07-05T14:00:33.939Z,53.80
2018-07-05T14:02:35.900Z,53.80
2018-07-05T14:04:37.853Z,53.90
2018-07-05T14:06:39.837Z,53.80
2018-07-05T14:08:41.831Z,53.90
2018-07-05T14:10:43.816Z,53.90
2018-07-05T14:12:45.776Z,53.80
2018-07-05T14:14:47.710Z,53.80
2018-07-05T14:16:49.697Z,53.90
2018-07-05T14:18:51.699Z,53.90
2018-07-05T14:20:53.669Z,53.80
2018-07-05T14:22:55.647Z,53.80
2018-07-05T14:24:57.665Z,53.80
2018-07-05T14:26:59.625Z,53.80
2018-07-05T14:29:01.609Z,53.80
2018-07-05T14:31:03.590Z,53.80
2018-07-05T14:33:05.564Z,53.70
2018-07-05T14:35:07.531Z,54.00
2018-07-05T14:37:09.499Z,54.40
2018-07-05T14:39:11.513Z,54.00
2018-07-05T14:41:13.499Z,53.30
2018-07-05T14:43:15.467Z,52.50
2018-07-05T14:45:17.459Z,52.90
2018-07-05T14:47:19.453Z,52.60
2018-07-05T14:49:21.439Z,52.50
2018-07-05T14:51:23.437Z,50.30
2018-07-05T14:53:25.420Z,49.20
2018-07-05T14:55:27.401Z,48.70
2018-07-05T14:57:29.377Z,48.40
2018-07-05T14:59:31.355Z,48.20
2018-07-05T15:01:33.382Z,47.80
2018-07-05T15:03:35.283Z,48.00
2018-07-05T15:05:37.271Z,47.90
2018-07-05T15:07:39.514Z,48.10
2018-07-05T15:09:41.483Z,48.10
2018-07-05T15:11:43.466Z,47.70
2018-07-05T15:13:45.422Z,48.00
2018-07-05T15:15:47.390Z,47.70
2018-07-05T15:17:49.357Z,47.40
2018-07-05T15:19:51.350Z,46.60
2018-07-05T15:21:53.335Z,46.60
2018-07-05T15:23:55.297Z,46.40
2018-07-05T15:25:57.266Z,46.40
2018-07-05T15:27:59.279Z,46.70
2018-07-05T15:30:01.256Z,47.00
2018-07-05T15:32:03.257Z,47.00
2018-07-05T15:34:05.228Z,47.00
2018-07-05T15:36:07.160Z,47.20
2018-07-05T15:38:09.163Z,47.50
2018-07-05T15:40:11.159Z,47.50
2018-07-05T15:42:13.150Z,47.90
2018-07-05T15:44:15.129Z,48.40
2018-07-05T15:46:17.097Z,48.00
2018-07-05T15:48:19.113Z,47.80
2018-07-05T15:50:21.065Z,47.70
2018-07-05T15:52:23.050Z,47.40
2018-07-05T15:54:25.033Z,47.20
2018-07-05T15:56:27.001Z,46.40
2018-07-05T15:58:28.984Z,46.40
2018-07-05T16:00:30.949Z,46.40
2018-07-05T16:02:32.916Z,46.30
2018-07-05T16:04:34.900Z,46.20
2018-07-05T16:06:36.885Z,45.90
2018-07-05T16:08:38.853Z,45.40
2018-07-05T16:10:40.828Z,42.60
2018-07-05T16:12:42.819Z,45.20
2018-07-05T16:14:44.789Z,45.20
2018-07-05T16:16:46.768Z,45.60
2018-07-05T16:18:48.729Z,45.30
2018-07-05T16:20:50.705Z,45.00
2018-07-05T16:22:52.660Z,44.90
2018-07-05T16:24:54.614Z,44.90
2018-07-05T16:26:56.592Z,44.90
2018-07-05T16:28:58.550Z,45.30
2018-07-05T16:31:00.546Z,45.50
2018-07-05T16:33:02.494Z,45.60
2018-07-05T16:35:04.452Z,45.90
2018-07-05T16:37:06.442Z,46.20
2018-07-05T16:39:08.408Z,46.60
2018-07-05T16:41:10.380Z,46.70
2018-07-05T16:43:12.354Z,47.10
2018-07-05T16:45:14.322Z,47.20
2018-07-05T16:47:16.282Z,47.50
2018-07-05T16:49:18.312Z,47.40
2018-07-05T16:51:20.660Z,47.40
2018-07-05T16:53:22.681Z,47.60
2018-07-05T16:55:24.667Z,47.50
2018-07-05T16:57:26.682Z,47.40
2018-07-05T16:59:28.657Z,47.20
2018-07-05T17:01:30.660Z,47.50
2018-07-05T17:03:32.635Z,47.20
2018-07-05T17:05:34.613Z,47.40
2018-07-05T17:07:36.578Z,47.50
2018-07-05T17:09:38.583Z,47.60
2018-07-05T17:11:40.556Z,47.80
2018-07-05T17:13:42.578Z,48.00
2018-07-05T17:15:44.563Z,47.90
2018-07-05T17:17:46.557Z,48.30
2018-07-05T17:19:48.513Z,48.70
2018-07-05T17:21:50.562Z,48.60
2018-07-05T17:23:52.532Z,48.70
2018-07-05T17:25:54.504Z,49.00
2018-07-05T17:27:56.479Z,48.90
2018-07-05T17:29:58.489Z,48.90
2018-07-05T17:32:00.492Z,49.10
2018-07-05T17:34:02.426Z,49.00
2018-07-05T17:36:04.401Z,49.00
2018-07-05T17:38:06.385Z,49.00
2018-07-05T17:40:08.363Z,49.10
2018-07-05T17:42:10.326Z,49.00
2018-07-05T17:44:12.300Z,49.20
2018-07-05T17:46:14.268Z,48.90
2018-07-05T17:48:16.243Z,49.70
2018-07-05T17:50:18.225Z,49.70
2018-07-05T17:52:20.209Z,49.60
2018-07-05T17:54:22.184Z,49.70
2018-07-05T17:56:24.182Z,49.80
2018-07-05T17:58:26.188Z,49.60
2018-07-05T18:02:30.405Z,49.30
2018-07-05T18:04:32.386Z,49.20
2018-07-05T18:06:34.352Z,49.20
2018-07-05T18:08:36.339Z,49.20
2018-07-05T18:10:38.315Z,49.10
2018-07-05T18:12:40.289Z,49.10
2018-07-05T18:14:42.255Z,49.10
2018-07-05T18:16:44.295Z,49.20
2018-07-05T18:18:46.566Z,49.20
2018-07-05T18:20:48.529Z,49.10
2018-07-05T18:22:50.496Z,49.20
2018-07-05T18:24:52.465Z,49.10
2018-07-05T18:26:54.432Z,49.40
2018-07-05T18:28:56.421Z,49.40
2018-07-05T18:30:58.368Z,49.50
2018-07-05T18:33:00.345Z,49.60
2018-07-05T18:35:02.319Z,49.50
2018-07-05T18:37:04.293Z,49.50
2018-07-05T18:39:06.261Z,49.30
2018-07-05T18:41:08.230Z,49.10
2018-07-05T18:43:10.216Z,49.50
2018-07-05T18:45:12.205Z,49.70
2018-07-05T18:47:14.217Z,49.60
2018-07-05T18:49:16.172Z,49.90
2018-07-05T18:51:18.139Z,49.80
2018-07-05T18:53:20.101Z,50.30
2018-07-05T18:55:22.074Z,49.50
2018-07-05T18:57:24.013Z,49.80
2018-07-05T18:59:25.998Z,49.50
2018-07-05T19:01:27.998Z,49.50
2018-07-05T19:03:29.941Z,49.60
2018-07-05T19:05:31.942Z,49.50
2018-07-05T19:07:33.912Z,49.50
2018-07-05T19:09:35.972Z,49.70
2018-07-05T19:11:37.938Z,49.90
2018-07-05T19:13:39.895Z,49.70
2018-07-05T19:15:41.851Z,49.90
2018-07-05T19:17:43.864Z,50.40
2018-07-05T19:19:45.822Z,50.70
2018-07-05T19:21:47.833Z,50.80
2018-07-05T19:23:49.796Z,50.60
2018-07-05T19:27:54.047Z,50.60
2018-07-05T19:29:56.003Z,50.50
2018-07-05T19:31:57.982Z,50.50
2018-07-05T19:33:59.937Z,50.50
2018-07-05T19:36:01.982Z,50.40
2018-07-05T19:38:03.920Z,50.70
2018-07-05T19:40:05.873Z,50.60
2018-07-05T19:42:07.893Z,50.70
2018-07-05T19:44:09.869Z,50.60
2018-07-05T19:46:11.835Z,50.60
2018-07-05T19:48:13.812Z,50.60
2018-07-05T19:50:15.775Z,50.40
2018-07-05T19:52:17.752Z,50.10
2018-07-05T19:54:19.722Z,50.40
2018-07-05T19:56:21.717Z,50.70
2018-07-05T19:58:23.719Z,51.00
2018-07-05T20:00:25.771Z,51.30
2018-07-05T20:02:27.691Z,51.30
2018-07-05T20:04:29.672Z,51.50
2018-07-05T20:06:31.627Z,51.40
2018-07-05T20:08:33.574Z,51.70
2018-07-05T20:10:35.585Z,51.90
2018-07-05T20:12:37.537Z,51.90
2018-07-05T20:14:39.526Z,52.30
2018-07-05T20:16:41.490Z,51.80
2018-07-05T20:18:43.449Z,52.20
2018-07-05T20:20:45.400Z,52.50
2018-07-05T20:22:47.371Z,52.40
2018-07-05T20:26:51.580Z,52.40
2018-07-05T20:28:53.538Z,52.50
2018-07-05T20:30:55.507Z,51.70
2018-07-05T20:34:59.702Z,51.00
2018-07-05T20:37:01.690Z,51.20
2018-07-05T20:39:03.647Z,51.20
2018-07-05T20:41:05.657Z,51.30
2018-07-05T20:43:07.625Z,51.30
2018-07-05T20:45:09.609Z,51.40
2018-07-05T20:47:11.606Z,51.40
2018-07-05T20:49:14.050Z,51.40
2018-07-05T20:51:16.207Z,51.50
2018-07-05T20:53:18.193Z,51.60
2018-07-05T20:55:20.153Z,51.60
2018-07-05T20:57:22.130Z,51.50
2018-07-05T20:59:24.125Z,51.50
2018-07-05T21:01:26.107Z,51.60
2018-07-05T21:03:28.090Z,51.60
2018-07-05T21:05:30.061Z,51.70
2018-07-05T21:07:32.036Z,51.80
2018-07-05T21:09:34.024Z,51.70
2018-07-05T21:11:36.010Z,51.70
2018-07-05T21:13:38.010Z,51.90
2018-07-05T21:15:39.976Z,51.80
2018-07-05T21:17:41.955Z,51.90
2018-07-05T21:19:43.945Z,51.90
2018-07-05T21:21:45.976Z,51.90
2018-07-05T21:23:47.935Z,51.90
2018-07-05T21:25:49.911Z,51.80
2018-07-05T21:27:51.875Z,52.00
2018-07-05T21:29:53.903Z,51.80
2018-07-05T21:31:55.877Z,51.90
2018-07-05T21:33:57.851Z,52.00
2018-07-05T21:35:59.849Z,51.90
2018-07-05T21:38:01.849Z,51.70
2018-07-05T21:40:03.842Z,51.60
2018-07-05T21:42:05.821Z,51.80
2018-07-05T21:44:07.785Z,51.90
2018-07-05T21:46:09.779Z,51.90
2018-07-05T21:48:11.758Z,51.90
2018-07-05T21:50:13.731Z,51.90
2018-07-05T21:52:15.719Z,52.00
2018-07-05T21:54:17.704Z,51.80
2018-07-05T21:56:19.730Z,51.80
2018-07-05T21:58:21.682Z,51.70
2018-07-05T22:00:23.620Z,51.60
2018-07-05T22:02:25.615Z,51.70
2018-07-05T22:04:27.592Z,51.70
2018-07-05T22:06:29.568Z,51.80
2018-07-05T22:08:31.555Z,51.60
2018-07-05T22:10:33.519Z,51.70
2018-07-05T22:12:35.513Z,51.70
2018-07-05T22:14:37.498Z,51.70
2018-07-05T22:16:39.477Z,51.60
2018-07-05T22:18:41.449Z,51.60
2018-07-05T22:20:43.401Z,51.60
2018-07-05T22:24:47.637Z,52.20
2018-07-05T22:26:49.604Z,51.70
2018-07-05T22:28:51.615Z,51.70
2018-07-05T22:30:53.645Z,51.60
2018-07-05T22:32:55.594Z,51.60
2018-07-05T22:34:57.571Z,51.70
2018-07-05T22:36:59.537Z,51.50
2018-07-05T22:39:01.510Z,51.70
2018-07-05T22:41:03.498Z,51.60
2018-07-05T22:43:05.441Z,51.60
2018-07-05T22:45:07.428Z,51.60
2018-07-05T22:47:09.392Z,51.50
2018-07-05T22:49:11.359Z,51.50
2018-07-05T22:53:15.574Z,52.40
2018-07-05T22:55:17.533Z,51.60
2018-07-05T22:57:19.725Z,51.60
2018-07-05T22:59:21.697Z,51.50
2018-07-05T23:01:23.653Z,51.40
2018-07-05T23:03:25.618Z,51.50
2018-07-05T23:05:27.575Z,51.50
2018-07-05T23:07:29.569Z,51.50
2018-07-05T23:09:31.555Z,51.50
2018-07-05T23:11:33.529Z,51.60
2018-07-05T23:13:35.490Z,51.60
2018-07-05T23:15:37.483Z,51.60
2018-07-05T23:17:39.469Z,51.60
2018-07-05T23:19:41.415Z,51.90
2018-07-05T23:21:43.379Z,51.80
2018-07-05T23:23:45.363Z,51.70
2018-07-05T23:25:47.338Z,51.60
2018-07-05T23:27:49.327Z,51.60
2018-07-05T23:29:51.311Z,51.60
2018-07-05T23:31:53.248Z,51.90
2018-07-05T23:35:57.464Z,52.50
2018-07-05T23:37:59.449Z,51.80
2018-07-05T23:40:01.421Z,51.80
2018-07-05T23:42:03.372Z,51.80
2018-07-05T23:46:07.619Z,51.80
2018-07-05T23:48:09.576Z,51.80
2018-07-05T23:50:11.569Z,51.70
2018-07-05T23:52:13.527Z,51.70
2018-07-05T23:54:15.517Z,51.80
2018-07-05T23:56:17.485Z,51.70
2018-07-05T23:58:19.472Z,51.80
